sensor_id;sensor_type;location;lat;lon;timestamp;P1;durP1;ratioP1;P2;durP2;ratioP2
83682;SDS011;73663;51.298;5.802;2024-01-16T00:00:58;6.82;;;3.38;;
83682;SDS011;73663;51.298;5.802;2024-01-16T00:05:58;6.07;;;3.53;;
83682;SDS011;73663;51.298;5.802;2024-01-16T00:11:03;6.80;;;3.25;;
83682;SDS011;73663;51.298;5.802;2024-01-16T00:16:04;8.55;;;4.07;;
83682;SDS011;73663;51.298;5.802;2024-01-16T00:21:05;8.27;;;4.50;;
83682;SDS011;73663;51.298;5.802;2024-01-16T00:26:05;7.15;;;4.10;;
83682;SDS011;73663;51.298;5.802;2024-01-16T00:31:09;9.75;;;4.60;;
83682;SDS011;73663;51.298;5.802;2024-01-16T00:36:10;13.18;;;5.85;;
83682;SDS011;73663;51.298;5.802;2024-01-16T00:41:10;8.52;;;4.78;;
83682;SDS011;73663;51.298;5.802;2024-01-16T00:46:11;8.13;;;4.38;;
83682;SDS011;73663;51.298;5.802;2024-01-16T00:51:12;4.63;;;2.83;;
83682;SDS011;73663;51.298;5.802;2024-01-16T00:56:13;6.50;;;3.83;;
83682;SDS011;73663;51.298;5.802;2024-01-16T01:01:13;5.97;;;3.28;;
83682;SDS011;73663;51.298;5.802;2024-01-16T01:06:14;12.30;;;3.75;;
83682;SDS011;73663;51.298;5.802;2024-01-16T01:11:14;6.47;;;4.45;;
83682;SDS011;73663;51.298;5.802;2024-01-16T01:16:15;6.53;;;3.75;;
83682;SDS011;73663;51.298;5.802;2024-01-16T01:21:16;8.63;;;4.25;;
83682;SDS011;73663;51.298;5.802;2024-01-16T01:26:16;10.98;;;4.72;;
83682;SDS011;73663;51.298;5.802;2024-01-16T01:31:20;9.73;;;4.88;;
83682;SDS011;73663;51.298;5.802;2024-01-16T01:36:27;6.53;;;3.75;;
83682;SDS011;73663;51.298;5.802;2024-01-16T01:41:27;5.85;;;2.70;;
83682;SDS011;73663;51.298;5.802;2024-01-16T01:46:28;10.80;;;5.60;;
83682;SDS011;73663;51.298;5.802;2024-01-16T01:51:32;7.22;;;4.00;;
83682;SDS011;73663;51.298;5.802;2024-01-16T01:56:33;8.25;;;3.75;;
83682;SDS011;73663;51.298;5.802;2024-01-16T02:01:34;9.23;;;3.65;;
83682;SDS011;73663;51.298;5.802;2024-01-16T02:06:35;8.60;;;3.47;;
83682;SDS011;73663;51.298;5.802;2024-01-16T02:11:35;4.18;;;2.53;;
83682;SDS011;73663;51.298;5.802;2024-01-16T02:16:36;5.65;;;1.63;;
83682;SDS011;73663;51.298;5.802;2024-01-16T02:21:39;12.43;;;3.28;;
83682;SDS011;73663;51.298;5.802;2024-01-16T02:26:44;5.95;;;2.25;;
83682;SDS011;73663;51.298;5.802;2024-01-16T02:31:45;3.45;;;2.15;;
83682;SDS011;73663;51.298;5.802;2024-01-16T02:36:45;1.38;;;0.95;;
83682;SDS011;73663;51.298;5.802;2024-01-16T02:41:46;1.70;;;0.95;;
83682;SDS011;73663;51.298;5.802;2024-01-16T02:46:46;3.75;;;1.05;;
83682;SDS011;73663;51.298;5.802;2024-01-16T02:51:54;3.35;;;0.93;;
83682;SDS011;73663;51.298;5.802;2024-01-16T02:56:54;3.70;;;1.02;;
83682;SDS011;73663;51.298;5.802;2024-01-16T03:02:01;3.22;;;1.42;;
83682;SDS011;73663;51.298;5.802;2024-01-16T03:07:02;4.85;;;1.92;;
83682;SDS011;73663;51.298;5.802;2024-01-16T03:12:03;1.58;;;1.13;;
83682;SDS011;73663;51.298;5.802;2024-01-16T03:17:04;8.35;;;3.45;;
83682;SDS011;73663;51.298;5.802;2024-01-16T03:22:06;7.20;;;3.60;;
83682;SDS011;73663;51.298;5.802;2024-01-16T03:27:06;8.25;;;3.38;;
83682;SDS011;73663;51.298;5.802;2024-01-16T03:32:07;10.57;;;4.43;;
83682;SDS011;73663;51.298;5.802;2024-01-16T03:37:08;12.85;;;4.95;;
83682;SDS011;73663;51.298;5.802;2024-01-16T03:42:08;14.50;;;5.75;;
83682;SDS011;73663;51.298;5.802;2024-01-16T03:47:09;19.30;;;7.97;;
83682;SDS011;73663;51.298;5.802;2024-01-16T03:52:09;12.13;;;6.07;;
83682;SDS011;73663;51.298;5.802;2024-01-16T03:57:10;6.65;;;3.70;;
83682;SDS011;73663;51.298;5.802;2024-01-16T04:02:10;8.18;;;5.00;;
83682;SDS011;73663;51.298;5.802;2024-01-16T04:07:17;8.93;;;4.18;;
83682;SDS011;73663;51.298;5.802;2024-01-16T04:12:18;8.48;;;3.80;;
83682;SDS011;73663;51.298;5.802;2024-01-16T04:17:18;10.55;;;4.38;;
83682;SDS011;73663;51.298;5.802;2024-01-16T04:22:20;12.43;;;3.85;;
83682;SDS011;73663;51.298;5.802;2024-01-16T04:27:21;7.00;;;3.15;;
83682;SDS011;73663;51.298;5.802;2024-01-16T04:32:21;8.35;;;3.85;;
83682;SDS011;73663;51.298;5.802;2024-01-16T04:37:22;5.20;;;2.60;;
83682;SDS011;73663;51.298;5.802;2024-01-16T04:42:23;11.38;;;3.85;;
83682;SDS011;73663;51.298;5.802;2024-01-16T04:47:24;6.93;;;3.03;;
83682;SDS011;73663;51.298;5.802;2024-01-16T04:52:25;10.63;;;4.15;;
83682;SDS011;73663;51.298;5.802;2024-01-16T04:57:26;7.57;;;3.30;;
83682;SDS011;73663;51.298;5.802;2024-01-16T05:02:26;8.82;;;3.00;;
83682;SDS011;73663;51.298;5.802;2024-01-16T05:07:27;9.63;;;2.97;;
83682;SDS011;73663;51.298;5.802;2024-01-16T05:12:27;5.82;;;2.45;;
83682;SDS011;73663;51.298;5.802;2024-01-16T05:17:28;6.55;;;3.00;;
83682;SDS011;73663;51.298;5.802;2024-01-16T05:22:28;4.13;;;2.75;;
83682;SDS011;73663;51.298;5.802;2024-01-16T05:27:29;9.60;;;3.28;;
83682;SDS011;73663;51.298;5.802;2024-01-16T05:32:36;9.10;;;3.05;;
83682;SDS011;73663;51.298;5.802;2024-01-16T05:37:39;7.80;;;2.72;;
83682;SDS011;73663;51.298;5.802;2024-01-16T05:42:39;6.15;;;2.67;;
83682;SDS011;73663;51.298;5.802;2024-01-16T05:47:40;4.50;;;2.30;;
83682;SDS011;73663;51.298;5.802;2024-01-16T05:52:41;8.40;;;2.65;;
83682;SDS011;73663;51.298;5.802;2024-01-16T05:57:41;6.97;;;3.10;;
83682;SDS011;73663;51.298;5.802;2024-01-16T06:02:43;4.97;;;1.92;;
83682;SDS011;73663;51.298;5.802;2024-01-16T06:07:44;4.38;;;2.53;;
83682;SDS011;73663;51.298;5.802;2024-01-16T06:12:45;5.82;;;1.80;;
83682;SDS011;73663;51.298;5.802;2024-01-16T06:17:46;10.35;;;3.05;;
83682;SDS011;73663;51.298;5.802;2024-01-16T06:22:46;7.20;;;2.15;;
83682;SDS011;73663;51.298;5.802;2024-01-16T06:27:47;8.77;;;2.65;;
83682;SDS011;73663;51.298;5.802;2024-01-16T06:32:47;5.97;;;1.92;;
83682;SDS011;73663;51.298;5.802;2024-01-16T06:37:48;6.10;;;2.20;;
83682;SDS011;73663;51.298;5.802;2024-01-16T06:42:49;2.60;;;1.33;;
83682;SDS011;73663;51.298;5.802;2024-01-16T06:47:49;5.97;;;1.85;;
83682;SDS011;73663;51.298;5.802;2024-01-16T06:52:50;5.63;;;2.00;;
83682;SDS011;73663;51.298;5.802;2024-01-16T06:57:51;10.50;;;2.25;;
83682;SDS011;73663;51.298;5.802;2024-01-16T07:02:52;8.43;;;2.15;;
83682;SDS011;73663;51.298;5.802;2024-01-16T07:07:54;8.60;;;2.60;;
83682;SDS011;73663;51.298;5.802;2024-01-16T07:12:54;5.57;;;2.58;;
83682;SDS011;73663;51.298;5.802;2024-01-16T07:17:56;4.20;;;2.30;;
83682;SDS011;73663;51.298;5.802;2024-01-16T07:22:56;8.98;;;2.40;;
83682;SDS011;73663;51.298;5.802;2024-01-16T07:27:57;7.45;;;2.58;;
83682;SDS011;73663;51.298;5.802;2024-01-16T07:32:58;6.05;;;2.28;;
83682;SDS011;73663;51.298;5.802;2024-01-16T07:38:04;7.22;;;2.65;;
83682;SDS011;73663;51.298;5.802;2024-01-16T07:43:05;5.88;;;2.05;;
83682;SDS011;73663;51.298;5.802;2024-01-16T07:48:05;5.63;;;2.17;;
83682;SDS011;73663;51.298;5.802;2024-01-16T07:53:06;6.70;;;3.30;;
83682;SDS011;73663;51.298;5.802;2024-01-16T07:58:07;10.27;;;2.85;;
83682;SDS011;73663;51.298;5.802;2024-01-16T08:03:07;7.90;;;2.60;;
83682;SDS011;73663;51.298;5.802;2024-01-16T08:08:11;12.10;;;3.97;;
83682;SDS011;73663;51.298;5.802;2024-01-16T08:13:12;7.13;;;3.42;;
83682;SDS011;73663;51.298;5.802;2024-01-16T08:18:13;6.88;;;2.40;;
83682;SDS011;73663;51.298;5.802;2024-01-16T08:23:15;7.68;;;3.63;;
83682;SDS011;73663;51.298;5.802;2024-01-16T08:28:16;11.40;;;4.85;;
83682;SDS011;73663;51.298;5.802;2024-01-16T08:33:16;10.57;;;3.40;;
83682;SDS011;73663;51.298;5.802;2024-01-16T08:38:17;6.57;;;3.53;;
83682;SDS011;73663;51.298;5.802;2024-01-16T08:43:18;8.73;;;3.58;;
83682;SDS011;73663;51.298;5.802;2024-01-16T08:48:18;10.00;;;3.92;;
83682;SDS011;73663;51.298;5.802;2024-01-16T08:53:19;13.05;;;4.10;;
83682;SDS011;73663;51.298;5.802;2024-01-16T08:58:23;9.25;;;3.97;;
83682;SDS011;73663;51.298;5.802;2024-01-16T09:03:23;7.28;;;3.90;;
83682;SDS011;73663;51.298;5.802;2024-01-16T09:08:25;6.68;;;3.40;;
83682;SDS011;73663;51.298;5.802;2024-01-16T09:13:26;6.38;;;3.20;;
83682;SDS011;73663;51.298;5.802;2024-01-16T09:18:27;7.38;;;3.22;;
83682;SDS011;73663;51.298;5.802;2024-01-16T09:23:27;5.93;;;3.22;;
83682;SDS011;73663;51.298;5.802;2024-01-16T09:28:28;10.45;;;3.60;;
83682;SDS011;73663;51.298;5.802;2024-01-16T09:33:28;8.57;;;4.13;;
83682;SDS011;73663;51.298;5.802;2024-01-16T09:38:29;13.55;;;3.42;;
83682;SDS011;73663;51.298;5.802;2024-01-16T09:43:31;9.55;;;3.67;;
83682;SDS011;73663;51.298;5.802;2024-01-16T09:48:33;4.82;;;3.00;;
83682;SDS011;73663;51.298;5.802;2024-01-16T09:53:34;7.90;;;3.50;;
83682;SDS011;73663;51.298;5.802;2024-01-16T09:58:34;7.85;;;4.28;;
83682;SDS011;73663;51.298;5.802;2024-01-16T10:03:37;7.80;;;3.08;;
83682;SDS011;73663;51.298;5.802;2024-01-16T10:08:38;6.25;;;2.78;;
83682;SDS011;73663;51.298;5.802;2024-01-16T10:13:40;10.02;;;3.92;;
83682;SDS011;73663;51.298;5.802;2024-01-16T10:18:41;6.07;;;3.72;;
83682;SDS011;73663;51.298;5.802;2024-01-16T10:23:43;6.70;;;3.28;;
83682;SDS011;73663;51.298;5.802;2024-01-16T10:28:44;9.25;;;3.60;;
83682;SDS011;73663;51.298;5.802;2024-01-16T10:33:44;6.43;;;3.10;;
83682;SDS011;73663;51.298;5.802;2024-01-16T10:38:51;4.22;;;2.28;;
83682;SDS011;73663;51.298;5.802;2024-01-16T10:44:07;9.52;;;4.22;;
83682;SDS011;73663;51.298;5.802;2024-01-16T10:49:07;10.23;;;3.63;;
83682;SDS011;73663;51.298;5.802;2024-01-16T10:54:08;8.10;;;3.80;;
83682;SDS011;73663;51.298;5.802;2024-01-16T11:04:33;5.03;;;2.78;;
83682;SDS011;73663;51.298;5.802;2024-01-16T11:09:34;5.88;;;3.30;;
83682;SDS011;73663;51.298;5.802;2024-01-16T11:14:36;8.25;;;3.33;;
83682;SDS011;73663;51.298;5.802;2024-01-16T11:19:44;5.93;;;3.53;;
83682;SDS011;73663;51.298;5.802;2024-01-16T11:25:03;10.15;;;3.80;;
83682;SDS011;73663;51.298;5.802;2024-01-16T11:30:14;8.20;;;3.78;;
83682;SDS011;73663;51.298;5.802;2024-01-16T11:35:33;6.88;;;3.03;;
83682;SDS011;73663;51.298;5.802;2024-01-16T11:40:34;13.32;;;3.70;;
83682;SDS011;73663;51.298;5.802;2024-01-16T11:50:35;8.00;;;3.88;;
83682;SDS011;73663;51.298;5.802;2024-01-16T12:06:00;10.38;;;4.10;;
83682;SDS011;73663;51.298;5.802;2024-01-16T12:11:06;8.55;;;3.83;;
83682;SDS011;73663;51.298;5.802;2024-01-16T12:16:07;6.90;;;4.55;;
83682;SDS011;73663;51.298;5.802;2024-01-16T12:21:08;5.75;;;3.65;;
83682;SDS011;73663;51.298;5.802;2024-01-16T12:26:16;7.05;;;3.33;;
83682;SDS011;73663;51.298;5.802;2024-01-16T12:31:27;9.57;;;4.43;;
83682;SDS011;73663;51.298;5.802;2024-01-16T12:36:29;6.95;;;3.40;;
83682;SDS011;73663;51.298;5.802;2024-01-16T12:41:47;6.47;;;3.30;;
83682;SDS011;73663;51.298;5.802;2024-01-16T12:46:54;7.63;;;3.55;;
83682;SDS011;73663;51.298;5.802;2024-01-16T12:52:15;6.90;;;3.47;;
83682;SDS011;73663;51.298;5.802;2024-01-16T12:57:18;5.82;;;3.13;;
83682;SDS011;73663;51.298;5.802;2024-01-16T13:02:23;6.47;;;3.80;;
83682;SDS011;73663;51.298;5.802;2024-01-16T13:07:25;5.18;;;3.10;;
83682;SDS011;73663;51.298;5.802;2024-01-16T13:12:26;10.38;;;3.03;;
83682;SDS011;73663;51.298;5.802;2024-01-16T13:17:33;7.95;;;3.78;;
83682;SDS011;73663;51.298;5.802;2024-01-16T13:22:34;6.13;;;3.25;;
83682;SDS011;73663;51.298;5.802;2024-01-16T13:27:35;5.65;;;2.92;;
83682;SDS011;73663;51.298;5.802;2024-01-16T13:32:36;7.75;;;3.38;;
83682;SDS011;73663;51.298;5.802;2024-01-16T13:37:37;6.13;;;3.22;;
83682;SDS011;73663;51.298;5.802;2024-01-16T13:42:38;5.97;;;2.85;;
83682;SDS011;73663;51.298;5.802;2024-01-16T13:47:39;6.32;;;3.08;;
83682;SDS011;73663;51.298;5.802;2024-01-16T13:52:40;8.05;;;3.40;;
83682;SDS011;73663;51.298;5.802;2024-01-16T13:57:41;4.55;;;2.50;;
83682;SDS011;73663;51.298;5.802;2024-01-16T14:02:42;7.65;;;2.90;;
83682;SDS011;73663;51.298;5.802;2024-01-16T14:07:54;5.60;;;2.47;;
83682;SDS011;73663;51.298;5.802;2024-01-16T14:12:55;6.15;;;3.03;;
83682;SDS011;73663;51.298;5.802;2024-01-16T14:17:56;7.53;;;3.22;;
83682;SDS011;73663;51.298;5.802;2024-01-16T14:22:58;5.82;;;2.72;;
83682;SDS011;73663;51.298;5.802;2024-01-16T14:28:00;5.38;;;3.03;;
83682;SDS011;73663;51.298;5.802;2024-01-16T14:33:05;6.40;;;2.88;;
83682;SDS011;73663;51.298;5.802;2024-01-16T14:38:07;10.23;;;3.00;;
83682;SDS011;73663;51.298;5.802;2024-01-16T14:43:07;6.65;;;2.92;;
83682;SDS011;73663;51.298;5.802;2024-01-16T14:48:08;7.30;;;2.55;;
83682;SDS011;73663;51.298;5.802;2024-01-16T14:53:10;4.60;;;2.60;;
83682;SDS011;73663;51.298;5.802;2024-01-16T14:58:12;7.45;;;2.63;;
83682;SDS011;73663;51.298;5.802;2024-01-16T15:03:13;5.13;;;2.83;;
83682;SDS011;73663;51.298;5.802;2024-01-16T15:08:14;8.38;;;3.10;;
83682;SDS011;73663;51.298;5.802;2024-01-16T15:13:14;7.40;;;2.75;;
83682;SDS011;73663;51.298;5.802;2024-01-16T15:18:21;4.82;;;2.75;;
83682;SDS011;73663;51.298;5.802;2024-01-16T15:23:22;9.38;;;3.25;;
83682;SDS011;73663;51.298;5.802;2024-01-16T15:28:25;6.72;;;3.65;;
83682;SDS011;73663;51.298;5.802;2024-01-16T15:33:25;8.23;;;3.15;;
83682;SDS011;73663;51.298;5.802;2024-01-16T15:38:27;3.85;;;2.53;;
83682;SDS011;73663;51.298;5.802;2024-01-16T15:43:28;6.90;;;2.88;;
83682;SDS011;73663;51.298;5.802;2024-01-16T15:48:28;8.48;;;4.07;;
83682;SDS011;73663;51.298;5.802;2024-01-16T15:53:33;20.42;;;7.95;;
83682;SDS011;73663;51.298;5.802;2024-01-16T15:58:34;8.77;;;4.30;;
83682;SDS011;73663;51.298;5.802;2024-01-16T16:03:35;7.15;;;3.90;;
83682;SDS011;73663;51.298;5.802;2024-01-16T16:08:35;10.25;;;3.47;;
83682;SDS011;73663;51.298;5.802;2024-01-16T16:13:36;7.72;;;3.85;;
83682;SDS011;73663;51.298;5.802;2024-01-16T16:18:37;5.03;;;3.03;;
83682;SDS011;73663;51.298;5.802;2024-01-16T16:23:37;7.82;;;2.83;;
83682;SDS011;73663;51.298;5.802;2024-01-16T16:28:38;6.25;;;2.75;;
83682;SDS011;73663;51.298;5.802;2024-01-16T16:33:39;6.93;;;2.70;;
83682;SDS011;73663;51.298;5.802;2024-01-16T16:38:39;7.03;;;2.60;;
83682;SDS011;73663;51.298;5.802;2024-01-16T16:43:42;7.05;;;3.15;;
83682;SDS011;73663;51.298;5.802;2024-01-16T16:48:43;12.82;;;5.55;;
83682;SDS011;73663;51.298;5.802;2024-01-16T16:53:47;8.95;;;3.03;;
83682;SDS011;73663;51.298;5.802;2024-01-16T16:58:51;6.95;;;3.40;;
83682;SDS011;73663;51.298;5.802;2024-01-16T17:03:52;7.20;;;3.58;;
83682;SDS011;73663;51.298;5.802;2024-01-16T17:08:52;7.05;;;3.08;;
83682;SDS011;73663;51.298;5.802;2024-01-16T17:13:53;8.52;;;3.33;;
83682;SDS011;73663;51.298;5.802;2024-01-16T17:18:53;5.72;;;3.10;;
83682;SDS011;73663;51.298;5.802;2024-01-16T17:23:54;13.23;;;3.80;;
83682;SDS011;73663;51.298;5.802;2024-01-16T17:28:55;7.93;;;3.67;;
83682;SDS011;73663;51.298;5.802;2024-01-16T17:33:56;10.18;;;4.15;;
83682;SDS011;73663;51.298;5.802;2024-01-16T17:38:57;6.30;;;2.80;;
83682;SDS011;73663;51.298;5.802;2024-01-16T17:43:59;8.05;;;3.08;;
83682;SDS011;73663;51.298;5.802;2024-01-16T17:49:06;19.55;;;6.90;;
83682;SDS011;73663;51.298;5.802;2024-01-16T17:54:07;26.98;;;11.02;;
83682;SDS011;73663;51.298;5.802;2024-01-16T17:59:07;9.23;;;4.97;;
83682;SDS011;73663;51.298;5.802;2024-01-16T18:04:08;62.88;;;18.35;;
83682;SDS011;73663;51.298;5.802;2024-01-16T18:09:08;66.30;;;18.80;;
83682;SDS011;73663;51.298;5.802;2024-01-16T18:14:09;11.90;;;4.15;;
83682;SDS011;73663;51.298;5.802;2024-01-16T18:19:13;8.63;;;3.35;;
83682;SDS011;73663;51.298;5.802;2024-01-16T18:24:14;12.90;;;5.78;;
83682;SDS011;73663;51.298;5.802;2024-01-16T18:29:24;18.00;;;7.78;;
83682;SDS011;73663;51.298;5.802;2024-01-16T18:34:25;21.35;;;8.85;;
83682;SDS011;73663;51.298;5.802;2024-01-16T18:39:25;14.35;;;6.82;;
83682;SDS011;73663;51.298;5.802;2024-01-16T18:44:26;12.98;;;5.60;;
83682;SDS011;73663;51.298;5.802;2024-01-16T18:49:26;14.85;;;6.40;;
83682;SDS011;73663;51.298;5.802;2024-01-16T18:54:27;10.88;;;4.50;;
83682;SDS011;73663;51.298;5.802;2024-01-16T18:59:27;10.57;;;5.05;;
83682;SDS011;73663;51.298;5.802;2024-01-16T19:04:28;26.30;;;10.80;;
83682;SDS011;73663;51.298;5.802;2024-01-16T19:09:30;33.25;;;11.20;;
83682;SDS011;73663;51.298;5.802;2024-01-16T19:14:36;17.63;;;6.82;;
83682;SDS011;73663;51.298;5.802;2024-01-16T19:19:37;11.48;;;4.82;;
83682;SDS011;73663;51.298;5.802;2024-01-16T19:24:38;15.13;;;5.35;;
83682;SDS011;73663;51.298;5.802;2024-01-16T19:29:38;13.07;;;5.13;;
83682;SDS011;73663;51.298;5.802;2024-01-16T19:34:39;16.38;;;5.60;;
83682;SDS011;73663;51.298;5.802;2024-01-16T19:39:47;13.40;;;5.60;;
83682;SDS011;73663;51.298;5.802;2024-01-16T19:44:47;13.75;;;5.22;;
83682;SDS011;73663;51.298;5.802;2024-01-16T19:49:49;16.15;;;6.57;;
83682;SDS011;73663;51.298;5.802;2024-01-16T19:54:49;16.88;;;5.70;;
83682;SDS011;73663;51.298;5.802;2024-01-16T19:59:50;9.63;;;5.57;;
83682;SDS011;73663;51.298;5.802;2024-01-16T20:04:50;13.02;;;5.55;;
83682;SDS011;73663;51.298;5.802;2024-01-16T20:09:52;21.95;;;8.98;;
83682;SDS011;73663;51.298;5.802;2024-01-16T20:14:53;11.07;;;5.40;;
83682;SDS011;73663;51.298;5.802;2024-01-16T20:19:53;15.63;;;5.45;;
83682;SDS011;73663;51.298;5.802;2024-01-16T20:24:54;10.15;;;4.65;;
83682;SDS011;73663;51.298;5.802;2024-01-16T20:29:55;9.57;;;4.75;;
83682;SDS011;73663;51.298;5.802;2024-01-16T20:34:55;8.98;;;4.75;;
83682;SDS011;73663;51.298;5.802;2024-01-16T20:39:56;11.90;;;5.32;;
83682;SDS011;73663;51.298;5.802;2024-01-16T20:44:57;9.95;;;5.57;;
83682;SDS011;73663;51.298;5.802;2024-01-16T20:49:58;8.70;;;5.20;;
83682;SDS011;73663;51.298;5.802;2024-01-16T20:54:58;9.77;;;5.20;;
83682;SDS011;73663;51.298;5.802;2024-01-16T20:59:59;9.18;;;5.07;;
83682;SDS011;73663;51.298;5.802;2024-01-16T21:04:59;12.90;;;5.53;;
83682;SDS011;73663;51.298;5.802;2024-01-16T21:10:00;10.38;;;4.95;;
83682;SDS011;73663;51.298;5.802;2024-01-16T21:15:01;11.02;;;5.68;;
83682;SDS011;73663;51.298;5.802;2024-01-16T21:20:01;9.35;;;5.03;;
83682;SDS011;73663;51.298;5.802;2024-01-16T21:25:05;12.60;;;5.45;;
83682;SDS011;73663;51.298;5.802;2024-01-16T21:30:08;8.50;;;4.90;;
83682;SDS011;73663;51.298;5.802;2024-01-16T21:35:09;12.85;;;5.38;;
83682;SDS011;73663;51.298;5.802;2024-01-16T21:40:10;11.50;;;4.28;;
83682;SDS011;73663;51.298;5.802;2024-01-16T21:45:11;12.00;;;5.68;;
83682;SDS011;73663;51.298;5.802;2024-01-16T21:50:11;10.35;;;4.70;;
83682;SDS011;73663;51.298;5.802;2024-01-16T21:55:13;11.95;;;6.15;;
83682;SDS011;73663;51.298;5.802;2024-01-16T22:00:13;11.43;;;5.07;;
83682;SDS011;73663;51.298;5.802;2024-01-16T22:05:14;9.63;;;4.90;;
83682;SDS011;73663;51.298;5.802;2024-01-16T22:10:15;7.55;;;4.82;;
83682;SDS011;73663;51.298;5.802;2024-01-16T22:15:16;11.50;;;4.40;;
83682;SDS011;73663;51.298;5.802;2024-01-16T22:20:16;10.27;;;4.88;;
83682;SDS011;73663;51.298;5.802;2024-01-16T22:25:17;13.07;;;5.65;;
83682;SDS011;73663;51.298;5.802;2024-01-16T22:30:17;8.18;;;4.53;;
83682;SDS011;73663;51.298;5.802;2024-01-16T22:35:18;69.70;;;18.73;;
83682;SDS011;73663;51.298;5.802;2024-01-16T22:40:19;29.75;;;12.05;;
83682;SDS011;73663;51.298;5.802;2024-01-16T22:45:19;32.42;;;12.73;;
83682;SDS011;73663;51.298;5.802;2024-01-16T22:50:20;20.35;;;8.93;;
83682;SDS011;73663;51.298;5.802;2024-01-16T22:55:20;9.90;;;6.45;;
83682;SDS011;73663;51.298;5.802;2024-01-16T23:00:21;10.98;;;6.00;;
83682;SDS011;73663;51.298;5.802;2024-01-16T23:05:22;11.38;;;6.65;;
83682;SDS011;73663;51.298;5.802;2024-01-16T23:10:23;10.63;;;5.78;;
83682;SDS011;73663;51.298;5.802;2024-01-16T23:15:25;13.30;;;7.93;;
83682;SDS011;73663;51.298;5.802;2024-01-16T23:20:26;12.50;;;6.57;;
83682;SDS011;73663;51.298;5.802;2024-01-16T23:25:30;14.25;;;5.20;;
83682;SDS011;73663;51.298;5.802;2024-01-16T23:30:31;14.30;;;5.75;;
83682;SDS011;73663;51.298;5.802;2024-01-16T23:35:31;10.82;;;6.13;;
83682;SDS011;73663;51.298;5.802;2024-01-16T23:40:32;13.60;;;6.78;;
83682;SDS011;73663;51.298;5.802;2024-01-16T23:45:32;10.25;;;5.20;;
83682;SDS011;73663;51.298;5.802;2024-01-16T23:50:40;9.38;;;5.60;;
83682;SDS011;73663;51.298;5.802;2024-01-16T23:55:41;15.70;;;7.32;;
